createdAt,value
2019-04-03T00:00:04.693Z,14.87
2019-04-03T00:02:34.365Z,14.83
2019-04-03T00:05:02.852Z,13.50
2019-04-03T00:07:31.704Z,17.17
2019-04-03T00:10:00.149Z,15.63
2019-04-03T00:12:30.285Z,14.90
2019-04-03T00:14:59.219Z,13.73
2019-04-03T00:17:29.959Z,15.67
2019-04-03T00:19:59.194Z,15.63
2019-04-03T00:22:30.105Z,14.00
2019-04-03T00:24:58.801Z,14.00
2019-04-03T00:27:25.405Z,14.97
2019-04-03T00:29:53.300Z,14.83
2019-04-03T00:32:23.805Z,13.48
2019-04-03T00:34:53.496Z,15.13
2019-04-03T00:37:24.344Z,16.07
2019-04-03T00:39:54.498Z,15.57
2019-04-03T00:42:24.164Z,15.87
2019-04-03T00:44:50.153Z,15.80
2019-04-03T00:47:16.959Z,17.37
2019-04-03T00:49:45.722Z,16.33
2019-04-03T00:52:15.002Z,15.17
2019-04-03T00:54:46.203Z,15.98
2019-04-03T00:57:15.346Z,16.20
2019-04-03T00:59:42.124Z,15.93
2019-04-03T01:02:16.176Z,15.27
2019-04-03T01:04:43.436Z,15.20
2019-04-03T01:07:10.019Z,16.47
2019-04-03T01:09:41.954Z,13.72
2019-04-03T01:12:09.584Z,15.27
2019-04-03T01:14:37.548Z,14.83
2019-04-03T01:17:06.264Z,14.97
2019-04-03T01:19:36.425Z,16.90
2019-04-03T01:24:50.259Z,14.60
2019-04-03T01:27:19.790Z,15.53
2019-04-03T01:29:46.722Z,12.83
2019-04-03T01:32:15.520Z,15.87
2019-04-03T01:34:47.362Z,15.63
2019-04-03T01:37:12.510Z,13.97
2019-04-03T01:39:44.710Z,14.00
2019-04-03T01:42:12.565Z,14.23
2019-04-03T01:44:40.474Z,16.73
2019-04-03T01:47:09.313Z,15.30
2019-04-03T01:49:39.055Z,15.43
2019-04-03T01:52:05.944Z,13.87
2019-04-03T01:54:34.857Z,13.47
2019-04-03T01:57:06.142Z,14.87
2019-04-03T01:59:37.092Z,14.13
2019-04-03T02:02:08.409Z,14.70
2019-04-03T02:04:34.214Z,15.17
2019-04-03T02:07:01.583Z,15.00
2019-04-03T02:09:31.970Z,15.43
2019-04-03T02:11:59.811Z,15.57
2019-04-03T02:14:26.637Z,14.03
2019-04-03T02:16:55.455Z,15.30
2019-04-03T02:19:26.626Z,17.73
2019-04-03T02:21:57.990Z,18.10
2019-04-03T02:24:24.702Z,21.60
2019-04-03T02:26:53.346Z,19.53
2019-04-03T02:29:20.495Z,22.53
2019-04-03T02:31:53.064Z,19.60
2019-04-03T02:34:18.948Z,18.77
2019-04-03T02:36:46.963Z,16.73
2019-04-03T02:39:18.919Z,15.67
2019-04-03T02:41:45.837Z,16.70
2019-04-03T02:44:12.807Z,18.33
2019-04-03T02:46:44.137Z,19.20
2019-04-03T02:49:11.113Z,17.33
2019-04-03T02:51:38.202Z,16.07
2019-04-03T02:54:04.929Z,16.37
2019-04-03T02:56:31.644Z,15.93
2019-04-03T02:58:58.630Z,16.02
2019-04-03T03:01:25.795Z,15.63
2019-04-03T03:03:52.662Z,15.30
2019-04-03T03:06:19.418Z,15.90
2019-04-03T03:08:46.962Z,16.62
2019-04-03T03:11:13.553Z,15.40
2019-04-03T03:13:40.172Z,14.23
2019-04-03T03:16:06.920Z,14.93
2019-04-03T03:18:33.790Z,15.47
2019-04-03T03:21:00.459Z,17.73
2019-04-03T03:23:27.088Z,16.90
2019-04-03T03:25:53.983Z,17.60
2019-04-03T03:28:20.547Z,18.43
2019-04-03T03:30:57.718Z,17.20
2019-04-03T03:33:33.464Z,15.90
2019-04-03T03:35:47.588Z,16.97
2019-04-03T03:38:13.589Z,16.07
2019-04-03T03:40:40.371Z,16.77
2019-04-03T03:43:07.144Z,17.77
2019-04-03T03:45:34.778Z,17.60
2019-04-03T03:48:01.824Z,16.83
2019-04-03T03:50:28.487Z,18.77
2019-04-03T03:52:56.186Z,16.90
2019-04-03T03:55:25.148Z,17.80
2019-04-03T03:57:51.738Z,15.63
2019-04-03T04:00:22.625Z,16.50
2019-04-03T04:02:46.801Z,17.00
2019-04-03T04:05:13.561Z,15.27
2019-04-03T04:07:40.164Z,14.90
2019-04-03T04:10:07.389Z,16.55
2019-04-03T04:12:34.034Z,21.00
2019-04-03T04:15:00.763Z,19.37
2019-04-03T04:17:27.337Z,17.97
2019-04-03T04:19:54.276Z,20.43
2019-04-03T04:22:21.201Z,18.00
2019-04-03T04:24:49.080Z,17.73
2019-04-03T04:27:15.934Z,15.93
2019-04-03T04:29:43.076Z,16.90
2019-04-03T04:32:10.080Z,19.63
2019-04-03T04:34:36.661Z,17.80
2019-04-03T04:37:03.291Z,19.65
2019-04-03T04:39:29.863Z,19.60
2019-04-03T04:41:56.908Z,19.65
2019-04-03T04:44:23.756Z,20.67
2019-04-03T04:46:50.690Z,20.63
2019-04-03T04:49:19.258Z,20.33
2019-04-03T04:51:47.772Z,22.13
2019-04-03T04:54:14.359Z,21.30
2019-04-03T04:56:40.934Z,19.50
2019-04-03T04:59:07.557Z,19.73
2019-04-03T05:01:34.175Z,17.43
2019-04-03T05:04:00.945Z,17.63
2019-04-03T05:06:29.594Z,17.93
2019-04-03T05:08:56.181Z,18.73
2019-04-03T05:11:23.877Z,18.32
2019-04-03T05:13:50.661Z,19.23
2019-04-03T05:16:19.815Z,16.43
2019-04-03T05:18:45.607Z,19.50
2019-04-03T05:21:12.565Z,17.87
2019-04-03T05:23:39.246Z,17.97
2019-04-03T05:26:05.887Z,17.07
2019-04-03T05:28:34.018Z,18.43
2019-04-03T05:31:01.417Z,18.23
2019-04-03T05:33:28.071Z,18.27
2019-04-03T05:35:54.957Z,20.57
2019-04-03T05:38:22.514Z,20.47
2019-04-03T05:40:49.961Z,19.20
2019-04-03T05:43:16.621Z,16.93
2019-04-03T05:45:43.565Z,17.33
2019-04-03T05:48:12.564Z,17.30
2019-04-03T05:50:38.864Z,15.73
2019-04-03T05:53:06.475Z,17.10
2019-04-03T05:55:33.188Z,16.77
2019-04-03T05:58:00.139Z,17.35
2019-04-03T06:00:26.739Z,17.10
2019-04-03T06:02:57.072Z,17.93
2019-04-03T06:05:22.517Z,16.57
2019-04-03T06:07:50.580Z,17.55
2019-04-03T06:10:17.200Z,18.33
2019-04-03T06:12:45.392Z,17.90
2019-04-03T06:15:12.497Z,19.93
2019-04-03T06:17:39.191Z,20.10
2019-04-03T06:20:06.068Z,20.13
2019-04-03T06:22:32.764Z,21.10
2019-04-03T06:25:00.012Z,21.30
2019-04-03T06:27:27.968Z,20.40
2019-04-03T06:29:55.556Z,21.50
2019-04-03T06:32:24.381Z,20.40
2019-04-03T06:34:51.106Z,19.40
2019-04-03T06:37:17.703Z,20.00
2019-04-03T06:39:44.558Z,18.37
2019-04-03T06:42:13.381Z,19.87
2019-04-03T06:44:39.828Z,19.13
2019-04-03T06:47:06.443Z,19.37
2019-04-03T06:49:33.135Z,18.57
2019-04-03T06:51:59.934Z,20.77
2019-04-03T06:54:26.719Z,21.57
2019-04-03T06:56:54.564Z,22.23
2019-04-03T06:59:21.589Z,23.27
2019-04-03T07:01:48.289Z,20.47
2019-04-03T07:04:14.920Z,20.93
2019-04-03T07:06:42.812Z,19.47
2019-04-03T07:09:21.859Z,21.05
2019-04-03T07:11:38.597Z,19.60
2019-04-03T07:14:05.464Z,21.20
2019-04-03T07:16:32.526Z,20.30
2019-04-03T07:18:59.837Z,20.52
2019-04-03T07:21:27.654Z,19.70
2019-04-03T07:23:54.554Z,18.90
2019-04-03T07:26:21.788Z,21.13
2019-04-03T07:28:48.524Z,19.30
2019-04-03T07:31:15.416Z,17.57
2019-04-03T07:33:42.256Z,19.53
2019-04-03T07:36:11.336Z,20.33
2019-04-03T07:38:37.612Z,19.07
2019-04-03T07:41:04.366Z,19.50
2019-04-03T07:43:30.960Z,19.57
2019-04-03T07:45:57.576Z,18.77
2019-04-03T07:48:25.056Z,17.87
2019-04-03T07:50:51.833Z,16.97
2019-04-03T07:53:19.903Z,16.13
2019-04-03T07:55:47.139Z,17.73
2019-04-03T07:58:15.027Z,15.87
2019-04-03T08:00:42.151Z,15.83
2019-04-03T08:03:10.731Z,15.35
2019-04-03T08:05:37.399Z,17.00
2019-04-03T08:08:04.277Z,17.73
2019-04-03T08:10:31.165Z,17.33
2019-04-03T08:15:48.167Z,17.00
2019-04-03T08:18:15.159Z,16.95
2019-04-03T08:20:42.247Z,16.33
2019-04-03T08:23:08.885Z,17.30
2019-04-03T08:25:35.551Z,17.53
2019-04-03T08:28:02.281Z,16.77
2019-04-03T08:30:29.418Z,16.73
2019-04-03T08:32:56.292Z,17.13
2019-04-03T08:35:24.234Z,19.30
2019-04-03T08:37:51.334Z,17.43
2019-04-03T08:40:20.315Z,17.20
2019-04-03T08:42:46.671Z,16.93
2019-04-03T08:45:13.677Z,17.53
2019-04-03T08:47:40.699Z,16.20
2019-04-03T08:50:07.596Z,17.97
2019-04-03T08:52:34.800Z,17.95
2019-04-03T08:55:02.704Z,18.03
2019-04-03T08:57:29.704Z,16.97
2019-04-03T08:59:57.987Z,19.00
2019-04-03T09:02:24.843Z,18.13
2019-04-03T09:04:51.819Z,18.13
2019-04-03T09:07:19.925Z,17.80
2019-04-03T09:09:46.522Z,17.00
2019-04-03T09:12:13.116Z,17.87
2019-04-03T09:14:39.886Z,17.30
2019-04-03T09:17:07.654Z,17.17
2019-04-03T09:19:34.536Z,17.83
2019-04-03T09:22:04.812Z,17.93
2019-04-03T09:24:31.679Z,18.30
2019-04-03T09:26:58.610Z,16.80
2019-04-03T09:29:27.858Z,18.23
2019-04-03T09:31:56.184Z,19.43
2019-04-03T09:34:22.939Z,17.60
2019-04-03T09:36:54.613Z,16.17
2019-04-03T09:39:22.883Z,17.30
2019-04-03T09:41:50.892Z,15.33
2019-04-03T09:44:20.127Z,16.13
2019-04-03T09:46:48.805Z,14.50
2019-04-03T09:49:15.762Z,13.37
2019-04-03T09:51:42.843Z,13.97
2019-04-03T09:54:13.299Z,12.97
2019-04-03T09:56:54.830Z,12.33
2019-04-03T09:59:10.819Z,13.77
2019-04-03T10:01:38.914Z,12.60
2019-04-03T10:04:08.445Z,13.70
2019-04-03T10:06:37.426Z,13.90
2019-04-03T10:09:05.968Z,13.40
2019-04-03T10:11:32.533Z,12.00
2019-04-03T10:14:01.448Z,12.97
2019-04-03T10:16:29.581Z,12.23
2019-04-03T10:18:56.961Z,13.07
2019-04-03T10:21:23.899Z,12.53
2019-04-03T10:23:52.070Z,11.40
2019-04-03T10:26:22.259Z,12.90
2019-04-03T10:29:03.078Z,12.43
2019-04-03T10:31:35.523Z,11.00
2019-04-03T10:34:13.569Z,12.63
2019-04-03T10:36:43.513Z,11.45
2019-04-03T10:39:10.685Z,12.57
2019-04-03T10:41:37.486Z,12.27
2019-04-03T10:44:10.360Z,11.30
2019-04-03T10:46:38.835Z,12.15
2019-04-03T10:49:09.091Z,11.00
2019-04-03T10:51:40.926Z,11.40
2019-04-03T10:54:10.968Z,8.57
2019-04-03T10:56:39.018Z,8.87
2019-04-03T10:59:12.139Z,7.67
2019-04-03T11:01:34.646Z,6.42
2019-04-03T11:04:04.704Z,5.55
2019-04-03T11:06:31.562Z,4.17
2019-04-03T11:09:01.048Z,4.80
2019-04-03T11:11:30.231Z,5.33
2019-04-03T11:13:57.864Z,6.78
2019-04-03T11:16:24.451Z,6.97
2019-04-03T11:19:00.053Z,6.72
2019-04-03T11:21:25.961Z,7.23
2019-04-03T11:23:53.739Z,7.35
2019-04-03T11:26:24.026Z,6.33
2019-04-03T11:28:49.319Z,6.57
2019-04-03T11:31:25.426Z,7.70
2019-04-03T11:33:46.285Z,7.67
2019-04-03T11:36:13.673Z,7.47
2019-04-03T11:38:40.577Z,6.62
2019-04-03T11:41:14.554Z,6.53
2019-04-03T11:43:36.253Z,6.42
2019-04-03T11:46:03.251Z,6.80
2019-04-03T11:48:30.464Z,6.20
2019-04-03T11:50:58.131Z,6.37
2019-04-03T11:53:25.210Z,6.65
2019-04-03T11:55:52.132Z,6.63
2019-04-03T11:58:20.736Z,6.40
2019-04-03T12:00:48.138Z,6.60
2019-04-03T12:03:15.114Z,6.20
2019-04-03T12:05:41.727Z,6.35
2019-04-03T12:08:08.687Z,7.77
2019-04-03T12:10:35.699Z,6.43
2019-04-03T12:13:04.288Z,7.00
2019-04-03T12:15:33.812Z,6.80
2019-04-03T12:18:01.169Z,6.87
2019-04-03T12:20:28.459Z,6.63
2019-04-03T12:22:55.815Z,6.60
2019-04-03T12:25:23.128Z,6.08
2019-04-03T12:27:50.004Z,6.63
2019-04-03T12:30:17.348Z,6.60
2019-04-03T12:32:48.737Z,6.60
2019-04-03T12:35:13.172Z,6.57
2019-04-03T12:37:40.062Z,6.15
2019-04-03T12:40:07.237Z,6.63
2019-04-03T12:42:34.179Z,6.03
2019-04-03T12:45:01.349Z,6.55
2019-04-03T12:47:29.231Z,6.78
2019-04-03T12:49:56.644Z,6.13
2019-04-03T12:52:23.572Z,5.93
2019-04-03T12:54:52.941Z,6.33
2019-04-03T12:57:19.089Z,5.93
2019-04-03T12:59:47.639Z,6.17
2019-04-03T13:02:15.080Z,5.77
2019-04-03T13:04:41.937Z,5.25
2019-04-03T13:07:08.857Z,5.40
2019-04-03T13:09:38.403Z,6.37
2019-04-03T13:12:05.210Z,5.22
2019-04-03T13:14:33.439Z,5.50
2019-04-03T13:17:00.595Z,5.20
2019-04-03T13:19:28.864Z,5.43
2019-04-03T13:21:56.064Z,4.73
2019-04-03T13:24:23.498Z,5.73
2019-04-03T13:26:50.435Z,5.03
2019-04-03T13:29:17.501Z,4.90
2019-04-03T13:31:47.064Z,5.00
2019-04-03T13:34:13.417Z,5.10
2019-04-03T13:36:40.206Z,4.43
2019-04-03T13:39:07.514Z,4.80
2019-04-03T13:41:34.854Z,4.36
2019-04-03T13:44:02.282Z,5.43
2019-04-03T13:46:30.181Z,4.55
2019-04-03T13:48:57.195Z,4.57
2019-04-03T13:51:24.145Z,3.70
2019-04-03T13:53:53.815Z,4.37
2019-04-03T13:56:23.165Z,4.13
2019-04-03T13:58:52.494Z,3.87
2019-04-03T14:01:19.173Z,4.73
2019-04-03T14:03:46.367Z,4.05
2019-04-03T14:06:13.386Z,3.73
2019-04-03T14:08:40.337Z,4.12
2019-04-03T14:11:07.230Z,4.03
2019-04-03T14:13:33.928Z,4.00
2019-04-03T14:16:01.644Z,3.50
2019-04-03T14:18:29.783Z,4.10
2019-04-03T14:20:57.150Z,3.72
2019-04-03T14:23:24.072Z,3.73
2019-04-03T14:26:03.146Z,3.40
2019-04-03T14:28:19.659Z,3.93
2019-04-03T14:30:46.389Z,3.67
2019-04-03T14:33:13.580Z,4.50
2019-04-03T14:35:49.400Z,3.93
2019-04-03T14:38:11.590Z,3.93
2019-04-03T14:40:37.461Z,4.70
2019-04-03T14:43:04.337Z,5.83
2019-04-03T14:45:31.292Z,6.17
2019-04-03T14:47:58.179Z,6.87
2019-04-03T14:50:25.674Z,4.40
2019-04-03T14:52:52.716Z,4.78
2019-04-03T14:55:22.635Z,3.55
2019-04-03T14:57:48.491Z,3.80
2019-04-03T15:00:26.111Z,3.83
2019-04-03T15:02:43.669Z,2.97
2019-04-03T15:05:10.947Z,3.00
2019-04-03T15:07:37.513Z,3.10
2019-04-03T15:10:04.097Z,3.30
2019-04-03T15:12:30.680Z,2.90
2019-04-03T15:14:57.581Z,3.42
2019-04-03T15:17:24.709Z,3.27
2019-04-03T15:19:51.891Z,3.10
2019-04-03T15:22:18.560Z,3.97
2019-04-03T15:24:45.713Z,3.57
2019-04-03T15:27:13.233Z,3.15
2019-04-03T15:29:41.301Z,2.95
2019-04-03T15:32:08.468Z,3.53
2019-04-03T15:34:35.681Z,2.90
2019-04-03T15:37:02.362Z,2.90
2019-04-03T15:39:29.932Z,2.70
2019-04-03T15:42:06.705Z,3.12
2019-04-03T15:44:35.283Z,3.80
2019-04-03T15:47:02.310Z,3.37
2019-04-03T15:49:29.797Z,3.50
2019-04-03T15:51:56.959Z,3.40
2019-04-03T15:54:26.199Z,3.43
2019-04-03T15:56:52.344Z,6.47
2019-04-03T15:59:19.562Z,3.57
2019-04-03T16:01:46.197Z,3.53
2019-04-03T16:04:13.056Z,3.63
2019-04-03T16:06:41.141Z,3.50
2019-04-03T16:09:08.101Z,3.00
2019-04-03T16:11:35.814Z,2.95
2019-04-03T16:14:02.722Z,3.53
2019-04-03T16:16:29.444Z,3.30
2019-04-03T16:18:56.110Z,3.40
2019-04-03T16:21:24.301Z,3.77
2019-04-03T16:23:51.537Z,3.20
2019-04-03T16:26:18.265Z,3.77
2019-04-03T16:28:45.211Z,4.00
2019-04-03T16:31:11.777Z,4.10
2019-04-03T16:33:38.844Z,4.00
2019-04-03T16:36:07.012Z,3.87
2019-04-03T16:38:35.870Z,4.80
2019-04-03T16:41:02.352Z,4.73
2019-04-03T16:43:29.540Z,4.03
2019-04-03T16:45:56.322Z,4.60
2019-04-03T16:48:23.037Z,4.37
2019-04-03T16:50:50.062Z,4.58
2019-04-03T16:53:19.848Z,4.95
2019-04-03T16:55:47.570Z,4.87
2019-04-03T16:58:14.196Z,4.87
2019-04-03T17:00:42.719Z,4.93
2019-04-03T17:03:09.922Z,5.57
2019-04-03T17:05:37.667Z,5.17
2019-04-03T17:08:04.460Z,4.90
2019-04-03T17:10:31.042Z,9.93
2019-04-03T17:12:57.925Z,12.00
2019-04-03T17:15:24.829Z,6.13
2019-04-03T17:17:51.600Z,4.60
2019-04-03T17:20:18.545Z,4.53
2019-04-03T17:22:46.790Z,4.10
2019-04-03T17:25:13.916Z,4.80
2019-04-03T17:27:40.635Z,4.40
2019-04-03T17:30:07.938Z,4.37
2019-04-03T17:32:37.925Z,5.20
2019-04-03T17:35:20.859Z,4.37
2019-04-03T17:37:53.719Z,4.93
2019-04-03T17:40:20.485Z,4.90
2019-04-03T17:42:48.894Z,6.07
2019-04-03T17:48:01.444Z,6.17
2019-04-03T17:50:33.077Z,6.50
2019-04-03T17:52:58.828Z,6.50
2019-04-03T17:55:33.221Z,6.43
2019-04-03T17:57:56.819Z,6.90
2019-04-03T18:00:25.787Z,6.23
2019-04-03T18:03:05.563Z,7.20
2019-04-03T18:05:33.336Z,6.67
2019-04-03T18:08:04.791Z,6.23
2019-04-03T18:10:28.778Z,6.23
2019-04-03T18:12:55.368Z,6.30
2019-04-03T18:15:22.017Z,5.20
2019-04-03T18:17:48.632Z,6.37
2019-04-03T18:20:15.213Z,6.35
2019-04-03T18:22:41.844Z,5.50
2019-04-03T18:25:09.020Z,5.80
2019-04-03T18:27:35.608Z,6.33
2019-04-03T18:30:02.663Z,6.47
2019-04-03T18:32:29.953Z,5.90
2019-04-03T18:34:56.876Z,5.50
2019-04-03T18:37:23.502Z,5.43
2019-04-03T18:39:51.578Z,5.90
2019-04-03T18:42:19.161Z,6.70
2019-04-03T18:44:45.960Z,6.30
2019-04-03T18:47:12.866Z,6.42
2019-04-03T18:49:40.051Z,5.80
2019-04-03T18:52:08.032Z,5.87
2019-04-03T18:54:35.142Z,5.53
2019-04-03T18:57:01.732Z,6.20
2019-04-03T18:59:28.379Z,5.63
2019-04-03T19:01:54.989Z,6.00
2019-04-03T19:04:21.583Z,6.27
2019-04-03T19:06:48.231Z,6.40
2019-04-03T19:09:15.123Z,6.65
2019-04-03T19:11:41.721Z,6.80
2019-04-03T19:14:08.597Z,6.13
2019-04-03T19:16:43.924Z,6.63
2019-04-03T19:19:08.219Z,7.07
2019-04-03T19:21:32.009Z,6.60
2019-04-03T19:24:11.071Z,6.80
2019-04-03T19:26:40.990Z,6.77
2019-04-03T19:29:07.816Z,6.70
2019-04-03T19:31:34.671Z,6.93
2019-04-03T19:34:03.861Z,6.80
2019-04-03T19:36:33.041Z,7.03
2019-04-03T19:38:59.965Z,7.10
2019-04-03T19:41:28.690Z,6.80
2019-04-03T19:43:55.349Z,6.70
2019-04-03T19:46:22.767Z,5.80
2019-04-03T19:48:49.993Z,6.60
2019-04-03T19:51:18.279Z,6.75
2019-04-03T19:53:58.698Z,7.07
2019-04-03T19:56:19.977Z,7.00
2019-04-03T19:58:49.187Z,7.23
2019-04-03T20:01:23.791Z,8.08
2019-04-03T20:03:48.031Z,7.20
2019-04-03T20:06:14.911Z,7.45
2019-04-03T20:08:44.569Z,8.63
2019-04-03T20:11:11.530Z,8.18
2019-04-03T20:13:39.825Z,6.93
2019-04-03T20:16:10.511Z,7.80
2019-04-03T20:18:37.320Z,7.43
2019-04-03T20:21:05.186Z,7.80
2019-04-03T20:23:34.596Z,8.30
2019-04-03T20:26:04.629Z,10.00
2019-04-03T20:28:30.223Z,10.33
2019-04-03T20:30:57.349Z,9.10
2019-04-03T20:33:25.980Z,9.17
2019-04-03T20:35:55.680Z,11.70
2019-04-03T20:38:33.211Z,10.87
2019-04-03T20:41:02.871Z,11.17
2019-04-03T20:43:28.779Z,10.70
2019-04-03T20:45:57.753Z,10.10
2019-04-03T20:48:28.225Z,9.47
2019-04-03T20:50:55.604Z,9.43
2019-04-03T20:53:26.107Z,9.60
2019-04-03T20:55:52.700Z,9.30
2019-04-03T20:58:21.432Z,9.00
2019-04-03T21:00:49.953Z,9.90
2019-04-03T21:03:18.949Z,9.15
2019-04-03T21:05:46.875Z,8.37
2019-04-03T21:08:16.297Z,9.63
2019-04-03T21:10:46.820Z,8.57
2019-04-03T21:13:15.409Z,8.77
2019-04-03T21:15:46.176Z,8.03
2019-04-03T21:18:13.918Z,8.63
2019-04-03T21:20:41.439Z,8.10
2019-04-03T21:23:08.254Z,8.60
2019-04-03T21:25:36.063Z,9.17
2019-04-03T21:28:03.259Z,8.13
2019-04-03T21:30:31.599Z,8.20
2019-04-03T21:32:59.879Z,8.60
2019-04-03T21:35:27.113Z,7.67
2019-04-03T21:37:56.230Z,7.97
2019-04-03T21:40:25.100Z,8.50
2019-04-03T21:42:54.061Z,7.63
2019-04-03T21:45:23.516Z,8.03
2019-04-03T21:47:50.111Z,9.67
2019-04-03T21:50:18.920Z,8.83
2019-04-03T21:52:45.086Z,8.47
2019-04-03T21:55:13.403Z,9.37
2019-04-03T21:57:39.945Z,9.50
2019-04-03T22:00:22.709Z,9.07
2019-04-03T22:02:35.916Z,8.67
2019-04-03T22:05:07.102Z,8.40
2019-04-03T22:07:37.077Z,9.50
2019-04-03T22:10:03.665Z,8.53
2019-04-03T22:12:30.332Z,8.53
2019-04-03T22:14:59.425Z,8.43
2019-04-03T22:17:27.736Z,7.97
2019-04-03T22:19:54.286Z,9.13
2019-04-03T22:22:23.009Z,8.45
2019-04-03T22:24:49.599Z,9.60
2019-04-03T22:27:16.260Z,9.17
2019-04-03T22:29:43.176Z,8.03
2019-04-03T22:32:09.876Z,8.80
2019-04-03T22:34:36.747Z,9.70
2019-04-03T22:37:05.117Z,9.80
2019-04-03T22:39:32.024Z,9.00
2019-04-03T22:41:58.975Z,9.53
2019-04-03T22:44:25.616Z,11.20
2019-04-03T22:46:54.099Z,9.60
2019-04-03T22:49:21.655Z,9.50
2019-04-03T22:51:50.551Z,8.67
2019-04-03T22:54:17.445Z,9.57
2019-04-03T22:56:47.706Z,10.03
2019-04-03T22:59:12.444Z,10.07
2019-04-03T23:01:39.335Z,10.48
2019-04-03T23:04:07.859Z,11.23
2019-04-03T23:06:34.410Z,10.83
2019-04-03T23:09:02.023Z,9.80
2019-04-03T23:11:32.032Z,10.00
2019-04-03T23:14:00.496Z,10.47
2019-04-03T23:16:31.924Z,9.37
2019-04-03T23:19:01.710Z,11.53
2019-04-03T23:21:32.341Z,10.00
2019-04-03T23:23:59.155Z,9.53
2019-04-03T23:26:27.039Z,8.50
2019-04-03T23:31:44.547Z,10.10
2019-04-03T23:34:11.337Z,8.60
2019-04-03T23:36:42.674Z,10.13
2019-04-03T23:39:14.098Z,8.97
2019-04-03T23:41:43.672Z,9.40
2019-04-03T23:44:11.658Z,8.57
2019-04-03T23:46:45.376Z,9.93
2019-04-03T23:49:13.099Z,8.63
2019-04-03T23:51:40.998Z,9.30
2019-04-03T23:54:16.008Z,10.00
2019-04-03T23:56:42.052Z,8.65
2019-04-03T23:59:12.667Z,9.20
